createdAt,value
2023-12-15T00:00:26.778Z,99916.75
2023-12-15T00:02:53.303Z,99913.31
2023-12-15T00:05:19.962Z,99912.81
2023-12-15T00:07:46.517Z,99908.44
2023-12-15T00:10:13.440Z,99923.78
2023-12-15T00:12:39.996Z,99916.28
2023-12-15T00:15:07.072Z,99914.38
2023-12-15T00:17:33.923Z,99923.56
2023-12-15T00:20:00.814Z,99922.97
2023-12-15T00:22:27.342Z,99926.41
2023-12-15T00:24:53.838Z,99909.34
2023-12-15T00:27:20.304Z,99921.91
2023-12-15T00:29:46.976Z,99938.31
2023-12-15T00:32:13.497Z,99928.13
2023-12-15T00:34:40.040Z,99942.81
2023-12-15T00:37:06.574Z,99947.06
2023-12-15T00:39:37.138Z,99951.25
2023-12-15T00:42:05.599Z,99950.78
2023-12-15T00:44:34.011Z,99949.50
2023-12-15T00:47:01.625Z,99964.84
2023-12-15T00:49:28.427Z,99962.81
2023-12-15T00:51:55.683Z,99964.31
2023-12-15T00:54:22.290Z,99970.34
2023-12-15T00:56:49.195Z,99978.22
2023-12-15T00:59:15.941Z,99975.88
2023-12-15T01:01:42.555Z,99980.09
2023-12-15T01:04:09.452Z,99986.69
2023-12-15T01:06:36.020Z,99993.81
2023-12-15T01:09:02.600Z,99992.13
2023-12-15T01:11:29.243Z,100000.69
2023-12-15T01:13:55.780Z,99995.09
2023-12-15T01:16:22.333Z,100000.19
2023-12-15T01:18:48.907Z,100000.25
2023-12-15T01:21:15.427Z,99995.06
2023-12-15T01:23:41.952Z,99990.22
2023-12-15T01:26:08.725Z,100008.75
2023-12-15T01:28:35.263Z,100019.72
2023-12-15T01:31:02.843Z,100018.91
2023-12-15T01:33:30.396Z,100029.22
2023-12-15T01:35:57.710Z,100012.53
2023-12-15T01:38:24.301Z,100002.94
2023-12-15T01:40:51.084Z,100024.25
2023-12-15T01:43:17.660Z,100038.50
2023-12-15T01:45:44.285Z,100028.25
2023-12-15T01:48:12.032Z,100034.97
2023-12-15T01:50:39.916Z,100033.22
2023-12-15T01:53:06.623Z,100037.94
2023-12-15T01:55:33.217Z,100036.03
2023-12-15T01:57:59.805Z,100040.13
2023-12-15T02:00:26.373Z,100039.28
2023-12-15T02:02:52.942Z,100035.69
2023-12-15T02:05:19.553Z,100032.31
2023-12-15T02:07:46.565Z,100034.75
2023-12-15T02:10:13.199Z,100035.59
2023-12-15T02:12:39.737Z,100047.75
2023-12-15T02:15:09.684Z,100039.09
2023-12-15T02:17:36.708Z,100041.59
2023-12-15T02:20:03.693Z,100041.34
2023-12-15T02:22:30.307Z,100039.00
2023-12-15T02:24:56.825Z,100031.59
2023-12-15T02:27:23.307Z,100046.09
2023-12-15T02:29:49.819Z,100042.97
2023-12-15T02:32:16.353Z,100036.63
2023-12-15T02:34:43.060Z,100035.59
2023-12-15T02:37:09.637Z,100051.66
2023-12-15T02:39:39.709Z,100054.28
2023-12-15T02:42:06.635Z,100058.34
2023-12-15T02:44:34.157Z,100070.19
2023-12-15T02:47:00.751Z,100054.84
2023-12-15T02:51:53.749Z,100062.88
2023-12-15T02:54:20.241Z,100062.75
2023-12-15T02:56:46.842Z,100066.97
2023-12-15T02:59:13.328Z,100060.72
2023-12-15T03:01:39.820Z,100075.91
2023-12-15T03:04:06.328Z,100076.97
2023-12-15T03:06:32.871Z,100074.88
2023-12-15T03:08:59.341Z,100091.63
2023-12-15T03:11:25.909Z,100091.56
2023-12-15T03:13:52.484Z,100086.84
2023-12-15T03:16:19.034Z,100095.72
2023-12-15T03:18:45.530Z,100101.00
2023-12-15T03:21:12.106Z,100097.03
2023-12-15T03:23:38.599Z,100093.69
2023-12-15T03:26:05.455Z,100115.56
2023-12-15T03:28:32.390Z,100107.13
2023-12-15T03:30:58.956Z,100114.53
2023-12-15T03:33:28.632Z,100121.91
2023-12-15T03:35:55.181Z,100125.78
2023-12-15T03:38:21.886Z,100131.13
2023-12-15T03:40:48.437Z,100146.41
2023-12-15T03:43:14.977Z,100150.06
2023-12-15T03:45:41.495Z,100151.38
2023-12-15T03:48:08.115Z,100149.81
2023-12-15T03:50:34.931Z,100148.97
2023-12-15T03:53:01.586Z,100145.31
2023-12-15T03:55:28.130Z,100144.31
2023-12-15T03:57:54.710Z,100153.53
2023-12-15T04:00:21.726Z,100160.31
2023-12-15T04:02:48.726Z,100167.88
2023-12-15T04:05:15.807Z,100164.88
2023-12-15T04:07:42.783Z,100160.66
2023-12-15T04:10:10.354Z,100166.81
2023-12-15T04:12:36.946Z,100159.34
2023-12-15T04:15:03.958Z,100160.38
2023-12-15T04:17:30.686Z,100168.22
2023-12-15T04:19:57.619Z,100168.63
2023-12-15T04:22:24.253Z,100177.91
2023-12-15T04:24:51.076Z,100195.00
2023-12-15T04:27:17.733Z,100196.75
2023-12-15T04:29:44.351Z,100189.75
2023-12-15T04:32:10.850Z,100194.13
2023-12-15T04:34:38.778Z,100203.44
2023-12-15T04:37:05.416Z,100209.47
2023-12-15T04:39:32.035Z,100208.06
2023-12-15T04:41:58.587Z,100214.53
2023-12-15T04:44:25.142Z,100218.81
2023-12-15T04:46:56.782Z,100219.69
2023-12-15T04:49:24.094Z,100221.94
2023-12-15T04:51:50.686Z,100232.34
2023-12-15T04:54:17.211Z,100231.31
2023-12-15T04:56:45.180Z,100238.03
2023-12-15T04:59:12.091Z,100237.44
2023-12-15T05:01:38.634Z,100231.50
2023-12-15T05:04:05.129Z,100225.66
2023-12-15T05:06:32.491Z,100254.78
2023-12-15T05:08:59.161Z,100234.63
2023-12-15T05:11:27.363Z,100244.00
2023-12-15T05:13:53.956Z,100237.53
2023-12-15T05:16:20.569Z,100249.28
2023-12-15T05:18:47.176Z,100256.13
2023-12-15T05:21:13.798Z,100253.63
2023-12-15T05:23:40.998Z,100255.19
2023-12-15T05:26:07.561Z,100269.56
2023-12-15T05:28:34.095Z,100263.72
2023-12-15T05:31:00.607Z,100278.75
2023-12-15T05:33:27.390Z,100285.47
2023-12-15T05:35:53.970Z,100282.84
2023-12-15T05:38:20.496Z,100289.38
2023-12-15T05:40:47.410Z,100305.59
2023-12-15T05:43:13.943Z,100289.50
2023-12-15T05:45:40.491Z,100306.13
2023-12-15T05:48:07.156Z,100315.25
2023-12-15T05:50:36.713Z,100309.88
2023-12-15T05:53:03.791Z,100317.06
2023-12-15T05:55:30.416Z,100326.28
2023-12-15T05:57:56.865Z,100316.63
2023-12-15T06:00:23.352Z,100316.41
2023-12-15T06:02:49.899Z,100331.00
2023-12-15T06:05:16.593Z,100325.91
2023-12-15T06:07:43.184Z,100325.75
2023-12-15T06:10:09.869Z,100338.38
2023-12-15T06:12:36.383Z,100342.09
2023-12-15T06:15:02.898Z,100343.06
2023-12-15T06:17:29.601Z,100352.78
2023-12-15T06:19:56.212Z,100345.94
2023-12-15T06:22:22.765Z,100356.69
2023-12-15T06:24:49.293Z,100369.75
2023-12-15T06:27:15.781Z,100387.53
2023-12-15T06:29:42.550Z,100379.81
2023-12-15T06:32:11.795Z,100383.06
2023-12-15T06:34:42.413Z,100388.13
2023-12-15T06:37:09.141Z,100387.16
2023-12-15T06:39:35.744Z,100389.16
2023-12-15T06:42:04.174Z,100389.56
2023-12-15T06:44:31.350Z,100404.00
2023-12-15T06:46:58.283Z,100400.25
2023-12-15T06:49:31.639Z,100409.63
2023-12-15T06:51:59.660Z,100421.50
2023-12-15T06:54:26.646Z,100421.53
2023-12-15T06:56:53.319Z,100432.44
2023-12-15T06:59:19.910Z,100444.78
2023-12-15T07:01:46.408Z,100452.13
2023-12-15T07:04:13.168Z,100444.53
2023-12-15T07:06:39.880Z,100444.88
2023-12-15T07:09:06.531Z,100455.66
2023-12-15T07:11:33.201Z,100474.78
2023-12-15T07:13:59.729Z,100478.00
2023-12-15T07:16:26.268Z,100481.44
2023-12-15T07:18:52.796Z,100473.06
2023-12-15T07:21:19.399Z,100485.91
2023-12-15T07:23:46.114Z,100481.66
2023-12-15T07:26:12.784Z,100491.78
2023-12-15T07:28:39.294Z,100511.25
2023-12-15T07:31:08.332Z,100500.34
2023-12-15T07:33:36.321Z,100500.91
2023-12-15T07:36:03.102Z,100502.56
2023-12-15T07:38:29.741Z,100515.13
2023-12-15T07:40:56.319Z,100515.19
2023-12-15T07:43:22.897Z,100510.16
2023-12-15T07:45:49.510Z,100505.91
2023-12-15T07:48:16.260Z,100525.06
2023-12-15T07:50:43.057Z,100538.38
2023-12-15T07:53:10.098Z,100535.47
2023-12-15T07:55:36.665Z,100539.81
2023-12-15T07:58:03.185Z,100549.00
2023-12-15T08:00:29.806Z,100562.38
2023-12-15T08:02:56.512Z,100561.56
2023-12-15T08:05:23.532Z,100574.13
2023-12-15T08:07:50.177Z,100574.53
2023-12-15T08:10:16.713Z,100575.47
2023-12-15T08:12:43.221Z,100585.53
2023-12-15T08:15:09.917Z,100592.56
2023-12-15T08:17:36.751Z,100608.34
2023-12-15T08:20:04.025Z,100614.09
2023-12-15T08:22:30.577Z,100610.97
2023-12-15T08:24:57.352Z,100597.81
2023-12-15T08:27:24.066Z,100625.94
2023-12-15T08:29:51.541Z,100628.78
2023-12-15T08:32:18.176Z,100613.41
2023-12-15T08:34:44.722Z,100628.16
2023-12-15T08:37:11.205Z,100624.91
2023-12-15T08:39:37.756Z,100627.31
2023-12-15T08:42:04.633Z,100643.34
2023-12-15T08:44:34.609Z,100651.72
2023-12-15T08:47:02.320Z,100653.63
2023-12-15T08:49:29.539Z,100656.31
2023-12-15T08:51:56.303Z,100648.16
2023-12-15T08:54:22.873Z,100664.19
2023-12-15T08:56:49.643Z,100662.38
2023-12-15T08:59:16.316Z,100657.22
2023-12-15T09:01:42.897Z,100671.94
2023-12-15T09:04:10.157Z,100674.28
2023-12-15T09:06:40.372Z,100678.28
2023-12-15T09:09:12.634Z,100689.97
2023-12-15T09:11:40.055Z,100702.66
2023-12-15T09:14:06.887Z,100703.53
2023-12-15T09:16:33.586Z,100700.53
2023-12-15T09:19:00.331Z,100716.31
2023-12-15T09:21:27.264Z,100712.94
2023-12-15T09:23:57.887Z,100713.16
2023-12-15T09:26:24.860Z,100715.59
2023-12-15T09:28:51.470Z,100723.88
2023-12-15T09:31:18.025Z,100723.88
2023-12-15T09:33:44.664Z,100728.06
2023-12-15T09:36:11.944Z,100740.03
2023-12-15T09:38:38.753Z,100740.16
2023-12-15T09:41:05.726Z,100739.38
2023-12-15T09:43:32.347Z,100742.91
2023-12-15T09:45:59.831Z,100736.66
2023-12-15T09:48:29.662Z,100750.53
2023-12-15T09:50:57.455Z,100750.34
2023-12-15T09:53:25.572Z,100747.09
2023-12-15T09:55:52.900Z,100745.69
2023-12-15T09:58:19.538Z,100743.03
2023-12-15T10:00:46.499Z,100759.56
2023-12-15T10:03:16.034Z,100767.28
2023-12-15T10:05:43.241Z,100756.25
2023-12-15T10:08:10.053Z,100759.56
2023-12-15T10:10:36.693Z,100767.91
2023-12-15T10:13:03.348Z,100766.28
2023-12-15T10:15:30.679Z,100772.09
2023-12-15T10:17:58.988Z,100780.53
2023-12-15T10:20:26.327Z,100779.56
2023-12-15T10:23:07.913Z,100779.72
2023-12-15T10:25:34.739Z,100771.97
2023-12-15T10:28:03.233Z,100787.84
2023-12-15T10:30:30.181Z,100787.50
2023-12-15T10:33:01.123Z,100790.03
2023-12-15T10:35:30.044Z,100801.78
2023-12-15T10:37:56.970Z,100789.03
2023-12-15T10:40:23.886Z,100805.09
2023-12-15T10:42:52.376Z,100792.88
2023-12-15T10:45:20.550Z,100802.00
2023-12-15T10:47:49.972Z,100804.59
2023-12-15T10:50:17.090Z,100811.44
2023-12-15T10:52:45.713Z,100804.66
2023-12-15T10:55:14.907Z,100814.00
2023-12-15T10:57:42.399Z,100813.16
2023-12-15T11:00:11.269Z,100804.69
2023-12-15T11:02:40.588Z,100814.84
2023-12-15T11:05:10.863Z,100819.06
2023-12-15T11:07:38.202Z,100802.09
2023-12-15T11:10:05.352Z,100828.34
2023-12-15T11:12:32.932Z,100828.28
2023-12-15T11:15:08.233Z,100828.13
2023-12-15T11:17:39.925Z,100833.97
2023-12-15T11:20:11.114Z,100845.94
2023-12-15T11:22:42.169Z,100846.03
2023-12-15T11:25:16.899Z,100848.03
2023-12-15T11:28:09.555Z,100854.25
2023-12-15T11:30:42.006Z,100856.38
2023-12-15T11:33:42.191Z,100852.47
2023-12-15T11:36:11.255Z,100855.91
2023-12-15T11:38:39.012Z,100864.34
2023-12-15T11:41:07.110Z,100848.09
2023-12-15T11:43:37.419Z,100856.53
2023-12-15T11:46:05.371Z,100843.47
2023-12-15T11:48:34.110Z,100855.38
2023-12-15T11:51:00.930Z,100857.00
2023-12-15T11:53:28.488Z,100853.63
2023-12-15T11:55:56.341Z,100862.09
2023-12-15T11:58:23.397Z,100854.59
2023-12-15T12:00:50.120Z,100860.22
2023-12-15T12:03:17.314Z,100835.78
2023-12-15T12:05:49.231Z,100861.97
2023-12-15T12:08:16.154Z,100858.84
2023-12-15T12:10:43.597Z,100863.44
2023-12-15T12:13:12.376Z,100862.41
2023-12-15T12:15:55.366Z,100868.88
2023-12-15T12:18:22.865Z,100875.59
2023-12-15T12:20:49.617Z,100874.97
2023-12-15T12:23:22.105Z,100877.78
2023-12-15T12:25:55.477Z,100881.63
2023-12-15T12:28:22.591Z,100878.38
2023-12-15T12:30:49.411Z,100890.50
2023-12-15T12:33:17.783Z,100895.50
2023-12-15T12:35:44.994Z,100896.41
2023-12-15T12:38:11.870Z,100899.69
2023-12-15T12:40:38.582Z,100906.41
2023-12-15T12:43:05.162Z,100900.50
2023-12-15T12:45:32.374Z,100890.16
2023-12-15T12:47:58.981Z,100923.34
2023-12-15T12:50:25.725Z,100910.63
2023-12-15T12:52:54.612Z,100920.44
2023-12-15T12:55:22.468Z,100923.78
2023-12-15T12:57:49.413Z,100934.66
2023-12-15T13:00:17.353Z,100943.81
2023-12-15T13:02:44.557Z,100943.81
2023-12-15T13:05:11.729Z,100947.44
2023-12-15T13:07:38.577Z,100941.59
2023-12-15T13:10:17.574Z,100947.56
2023-12-15T13:12:46.286Z,100964.47
2023-12-15T13:15:13.480Z,100959.41
2023-12-15T13:17:41.013Z,100964.84
2023-12-15T13:20:10.571Z,100958.28
2023-12-15T13:22:45.655Z,100976.34
2023-12-15T13:25:15.685Z,100987.41
2023-12-15T13:27:42.779Z,100974.78
2023-12-15T13:30:11.464Z,100976.78
2023-12-15T13:32:39.949Z,100991.28
2023-12-15T13:35:10.954Z,100992.06
2023-12-15T13:37:37.717Z,101004.22
2023-12-15T13:40:05.371Z,100996.69
2023-12-15T13:42:32.078Z,101011.13
2023-12-15T13:44:58.793Z,101000.38
2023-12-15T13:47:25.907Z,101019.88
2023-12-15T13:49:52.697Z,101021.59
2023-12-15T13:52:20.082Z,101037.94
2023-12-15T13:54:46.814Z,101049.31
2023-12-15T13:57:13.419Z,101047.38
2023-12-15T13:59:40.046Z,101053.44
2023-12-15T14:02:06.921Z,101045.75
2023-12-15T14:04:33.453Z,101042.50
2023-12-15T14:07:01.352Z,101046.69
2023-12-15T14:09:29.153Z,101058.81
2023-12-15T14:11:57.345Z,101078.44
2023-12-15T14:14:24.393Z,101070.88
2023-12-15T14:16:51.065Z,101069.25
2023-12-15T14:19:19.133Z,101064.91
2023-12-15T14:21:47.064Z,101059.81
2023-12-15T14:24:18.075Z,101079.22
2023-12-15T14:26:45.336Z,101087.16
2023-12-15T14:29:12.284Z,101084.78
2023-12-15T14:31:39.525Z,101095.88
2023-12-15T14:34:06.512Z,101099.59
2023-12-15T14:36:33.413Z,101091.84
2023-12-15T14:38:59.994Z,101090.91
2023-12-15T14:41:27.965Z,101105.53
2023-12-15T14:43:54.545Z,101116.66
2023-12-15T14:46:21.236Z,101121.59
2023-12-15T14:48:48.906Z,101124.19
2023-12-15T14:51:15.849Z,101121.78
2023-12-15T14:53:42.393Z,101129.50
2023-12-15T14:56:12.092Z,101144.97
2023-12-15T14:58:40.537Z,101150.94
2023-12-15T15:01:07.575Z,101155.28
2023-12-15T15:03:34.953Z,101155.34
2023-12-15T15:06:02.184Z,101151.13
2023-12-15T15:08:29.035Z,101157.94
2023-12-15T15:10:55.648Z,101163.78
2023-12-15T15:13:23.595Z,101162.00
2023-12-15T15:15:50.702Z,101179.91
2023-12-15T15:18:17.511Z,101170.50
2023-12-15T15:20:44.508Z,101166.25
2023-12-15T15:23:11.197Z,101168.88
2023-12-15T15:25:38.482Z,101174.03
2023-12-15T15:28:05.048Z,101182.59
2023-12-15T15:30:31.583Z,101185.91
2023-12-15T15:32:58.292Z,101182.56
2023-12-15T15:35:25.926Z,101176.81
2023-12-15T15:37:53.988Z,101194.81
2023-12-15T15:40:20.553Z,101194.00
2023-12-15T15:42:47.568Z,101204.28
2023-12-15T15:45:14.190Z,101197.59
2023-12-15T15:47:41.469Z,101199.38
2023-12-15T15:50:08.719Z,101197.69
2023-12-15T15:52:35.217Z,101204.69
2023-12-15T15:55:01.863Z,101209.81
2023-12-15T15:57:31.344Z,101216.72
2023-12-15T15:59:57.896Z,101203.22
2023-12-15T16:02:24.670Z,101211.78
2023-12-15T16:04:51.505Z,101216.94
2023-12-15T16:07:18.242Z,101217.16
2023-12-15T16:09:47.332Z,101223.00
2023-12-15T16:12:14.328Z,101235.75
2023-12-15T16:14:40.988Z,101229.88
2023-12-15T16:17:07.473Z,101249.47
2023-12-15T16:19:34.100Z,101240.06
2023-12-15T16:22:01.307Z,101241.72
2023-12-15T16:24:28.198Z,101256.16
2023-12-15T16:26:54.779Z,101264.63
2023-12-15T16:29:21.280Z,101278.22
2023-12-15T16:31:47.842Z,101279.00
2023-12-15T16:34:15.217Z,101285.72
2023-12-15T16:36:41.889Z,101283.13
2023-12-15T16:39:14.569Z,101293.28
2023-12-15T16:41:41.709Z,101300.03
2023-12-15T16:44:08.190Z,101298.28
2023-12-15T16:46:34.666Z,101301.69
2023-12-15T16:49:01.931Z,101319.63
2023-12-15T16:51:37.060Z,101320.50
2023-12-15T16:54:04.343Z,101329.03
2023-12-15T16:56:31.074Z,101323.09
2023-12-15T16:58:57.622Z,101324.00
2023-12-15T17:01:24.180Z,101337.72
2023-12-15T17:03:50.805Z,101340.28
2023-12-15T17:06:17.512Z,101338.63
2023-12-15T17:08:45.031Z,101348.00
2023-12-15T17:11:13.238Z,101352.28
2023-12-15T17:13:40.203Z,101352.31
2023-12-15T17:16:07.171Z,101350.66
2023-12-15T17:18:33.846Z,101346.53
2023-12-15T17:21:00.686Z,101349.09
2023-12-15T17:23:27.748Z,101351.63
2023-12-15T17:25:54.345Z,101373.81
2023-12-15T17:28:21.078Z,101374.66
2023-12-15T17:30:47.761Z,101369.63
2023-12-15T17:33:16.074Z,101388.44
2023-12-15T17:35:42.642Z,101387.63
2023-12-15T17:38:09.175Z,101386.78
2023-12-15T17:40:35.691Z,101384.22
2023-12-15T17:43:02.168Z,101380.00
2023-12-15T17:45:28.709Z,101382.47
2023-12-15T17:47:55.293Z,101403.03
2023-12-15T17:50:22.320Z,101403.00
2023-12-15T17:52:48.930Z,101414.16
2023-12-15T17:55:15.678Z,101404.75
2023-12-15T17:57:43.168Z,101421.81
2023-12-15T18:00:11.003Z,101414.19
2023-12-15T18:02:37.766Z,101417.78
2023-12-15T18:05:04.855Z,101425.47
2023-12-15T18:07:31.386Z,101429.66
2023-12-15T18:09:57.911Z,101414.31
2023-12-15T18:12:24.523Z,101424.63
2023-12-15T18:14:51.025Z,101441.72
2023-12-15T18:17:17.503Z,101449.44
2023-12-15T18:19:44.069Z,101437.47
2023-12-15T18:22:11.017Z,101435.78
2023-12-15T18:24:43.361Z,101446.91
2023-12-15T18:27:09.902Z,101448.59
2023-12-15T18:29:36.470Z,101449.50
2023-12-15T18:32:03.647Z,101452.91
2023-12-15T18:34:30.513Z,101451.22
2023-12-15T18:37:01.268Z,101441.06
2023-12-15T18:39:27.883Z,101452.94
2023-12-15T18:41:54.372Z,101464.88
2023-12-15T18:44:20.908Z,101471.75
2023-12-15T18:46:47.637Z,101461.47
2023-12-15T18:49:15.364Z,101472.56
2023-12-15T18:51:42.544Z,101481.94
2023-12-15T18:54:13.717Z,101490.47
2023-12-15T18:56:41.278Z,101484.50
2023-12-15T18:59:08.060Z,101487.94
2023-12-15T19:01:35.442Z,101476.81
2023-12-15T19:04:02.268Z,101485.31
2023-12-15T19:06:28.915Z,101487.03
2023-12-15T19:08:55.519Z,101482.78
2023-12-15T19:11:30.897Z,101485.34
2023-12-15T19:13:57.967Z,101482.81
2023-12-15T19:16:24.997Z,101486.25
2023-12-15T19:18:52.049Z,101487.94
2023-12-15T19:21:19.454Z,101488.81
2023-12-15T19:23:46.973Z,101482.91
2023-12-15T19:26:13.542Z,101480.34
2023-12-15T19:28:41.124Z,101484.63
2023-12-15T19:31:07.977Z,101490.59
2023-12-15T19:33:34.775Z,101501.66
2023-12-15T19:36:01.442Z,101502.53
2023-12-15T19:38:28.187Z,101498.28
2023-12-15T19:40:54.679Z,101506.00
2023-12-15T19:43:21.725Z,101509.41
2023-12-15T19:45:48.700Z,101497.50
2023-12-15T19:48:15.448Z,101517.13
2023-12-15T19:50:42.003Z,101510.31
2023-12-15T19:53:08.539Z,101512.88
2023-12-15T19:55:37.500Z,101523.13
2023-12-15T19:58:07.355Z,101508.63
2023-12-15T20:00:36.757Z,101518.00
2023-12-15T20:03:03.473Z,101514.59
2023-12-15T20:05:30.201Z,101522.25
2023-12-15T20:07:57.258Z,101512.88
2023-12-15T20:10:23.805Z,101530.81
2023-12-15T20:12:50.444Z,101519.72
2023-12-15T20:15:17.934Z,101511.19
2023-12-15T20:17:45.561Z,101522.28
2023-12-15T20:20:13.216Z,101523.09
2023-12-15T20:22:39.829Z,101532.50
2023-12-15T20:25:07.975Z,101529.06
2023-12-15T20:27:42.321Z,101518.03
2023-12-15T20:30:11.917Z,101536.75
2023-12-15T20:32:38.731Z,101527.38
2023-12-15T20:35:09.526Z,101544.44
2023-12-15T20:37:36.405Z,101545.31
2023-12-15T20:40:03.686Z,101538.47
2023-12-15T20:42:30.522Z,101540.19
2023-12-15T20:44:56.990Z,101525.69
2023-12-15T20:47:24.106Z,101533.34
2023-12-15T20:49:50.709Z,101553.84
2023-12-15T20:52:18.043Z,101538.47
2023-12-15T20:54:44.702Z,101549.56
2023-12-15T20:57:11.261Z,101559.81
2023-12-15T20:59:42.041Z,101548.72
2023-12-15T21:02:08.594Z,101540.19
2023-12-15T21:04:36.817Z,101549.59
2023-12-15T21:07:05.053Z,101547.00
2023-12-15T21:09:31.936Z,101550.44
2023-12-15T21:11:58.579Z,101538.47
2023-12-15T21:14:25.212Z,101547.88
2023-12-15T21:16:52.787Z,101552.13
2023-12-15T21:19:19.425Z,101542.75
2023-12-15T21:21:46.555Z,101542.75
2023-12-15T21:24:13.351Z,101555.53
2023-12-15T21:26:39.874Z,101541.91
2023-12-15T21:29:07.117Z,101547.00
2023-12-15T21:31:33.806Z,101554.69
2023-12-15T21:34:00.558Z,101552.94
2023-12-15T21:36:27.199Z,101553.81
2023-12-15T21:38:53.733Z,101564.06
2023-12-15T21:41:20.280Z,101560.66
2023-12-15T21:43:46.948Z,101553.81
2023-12-15T21:46:15.918Z,101549.53
2023-12-15T21:48:43.150Z,101546.09
2023-12-15T21:51:09.713Z,101554.63
2023-12-15T21:53:36.250Z,101553.78
2023-12-15T21:56:06.137Z,101553.78
2023-12-15T21:58:32.633Z,101559.75
2023-12-15T22:01:00.472Z,101568.28
2023-12-15T22:03:27.125Z,101565.72
2023-12-15T22:05:53.725Z,101546.09
2023-12-15T22:08:20.243Z,101562.31
2023-12-15T22:10:46.732Z,101553.75
2023-12-15T22:13:13.326Z,101571.69
2023-12-15T22:15:39.947Z,101568.28
2023-12-15T22:18:06.523Z,101567.47
2023-12-15T22:20:33.076Z,101552.13
2023-12-15T22:23:00.037Z,101573.47
2023-12-15T22:25:26.736Z,101570.06
2023-12-15T22:27:53.359Z,101571.75
2023-12-15T22:30:25.249Z,101570.03
2023-12-15T22:32:52.794Z,101567.50
2023-12-15T22:35:19.482Z,101558.97
2023-12-15T22:37:46.008Z,101559.78
2023-12-15T22:40:12.716Z,101555.53
2023-12-15T22:42:39.261Z,101544.47
2023-12-15T22:45:06.609Z,101537.66
2023-12-15T22:47:34.412Z,101529.09
2023-12-15T22:50:01.655Z,101534.22
2023-12-15T22:52:28.481Z,101532.50
2023-12-15T22:54:55.137Z,101543.59
2023-12-15T22:57:21.745Z,101543.63
2023-12-15T22:59:48.264Z,101543.63
2023-12-15T23:02:14.724Z,101523.97
2023-12-15T23:04:41.534Z,101537.63
2023-12-15T23:07:09.248Z,101536.78
2023-12-15T23:09:35.987Z,101525.69
2023-12-15T23:12:03.452Z,101530.81
2023-12-15T23:14:30.024Z,101541.88
2023-12-15T23:16:56.512Z,101534.19
2023-12-15T23:19:23.178Z,101539.34
2023-12-15T23:21:49.798Z,101546.19
2023-12-15T23:24:16.345Z,101537.63
2023-12-15T23:26:42.938Z,101537.63
2023-12-15T23:29:10.539Z,101558.09
2023-12-15T23:31:37.210Z,101546.16
2023-12-15T23:34:03.945Z,101542.75
2023-12-15T23:36:31.285Z,101545.31
2023-12-15T23:38:59.065Z,101545.28
2023-12-15T23:41:25.580Z,101551.28
2023-12-15T23:43:52.067Z,101556.41
2023-12-15T23:46:18.585Z,101564.91
2023-12-15T23:48:45.235Z,101571.75
2023-12-15T23:51:11.868Z,101572.63
2023-12-15T23:53:38.373Z,101573.44
2023-12-15T23:56:05.761Z,101565.75
2023-12-15T23:58:34.130Z,101570.03
